Roma, Italy

4:43 PM CET on February 14, 2016 (GMT +0100)
Cecchignola | | Change Station
CLOSE
Current Station
Personal Weather Station
Location: Roma, LAZIO
Elevation: 197 ft
Nearby Weather Stations

Elev 197 ft 41.82 °N, 12.50 °E | Updated 8 minutes ago

Mostly Cloudy
Mostly Cloudy
60.8 °F
Feels Like 60.8 °F
N
0.0
Wind Variable Wind from SSE
Gusts 4.0 mph

Today
High -- | Low -- °F
--% Chance of Precip.
Yesterday
High -- | Low -- °F
Precip. -- in
Pressure 29.42 in
Visibility 5.0 miles
Clouds Few 1000 ft
Mostly Cloudy 3000 ft
Dew Point 57 °F
Humidity 88%
Rainfall 0.43 in
Snow Depth Not available.
7:07 AM 5:40 PM
Waxing Crescent, 42% visible
METAR LIRA 141520Z 18008KT 150V210 8000 FEW010 BKN030 15/13 Q0996
Pressure 29.42 in
Visibility 5.0 miles
Clouds Few 1000 ft
Mostly Cloudy 3000 ft
Dew Point 57 °F
Humidity 88%
Rainfall 0.43 in
Snow Depth Not available.
7:07 AM 5:40 PM
Waxing Crescent, 42% visible
METAR LIRA 141520Z 18008KT 150V210 8000 FEW010 BKN030 15/13 Q0996

10-Day Weather Forecast

Almanac

Astronomy

Feb. 14, 2016 Rise Set
Actual Time
Civil Twilight
Nautical Twilight
Astronomical Twilight
Moon
Length of Visible Light
Length of Day
Tomorrow will be .
, % of the Moon is Illuminated

Today's Extremes

Country Highs Country Lows

Community

WunderPhotos

Upload Photos

1,892,802 photos uploaded!

WunderBlog® & News

Nearby

Air Quality

  Air Quality AQ Index Pollutant
Not available.

Snow Depth

Station Depth Elevation

Earthquake Activity

City Distance Mag. Time & Date
Minimum magnitude displayed is 2.5.

Coastal Water Temperatures

Place Temperature

Stations

Nearby Weather Stations

Station Location Temp. Windchill Dew Point Humidity Wind Precip. Elev Updated Type